F/v_l'omerta — FHXG — position and weather

sailwx.info

Track history (hours):
 
Tides and Currents Weather Stations Pressure Air Temp Water Temp Dewpoint Dewpoint Depression Visibility Wind Speed Wind Dir Waves Ship Positions

F/v_l'omerta

Last reported at 2018-Apr-21 22:08 UTC. Time now 2018-Apr-21 23:09 UTC.
Position N 46°33' W 002°36'.

Length 18 m.

Type: Fishing. MMSI: 227903000.

Date/timePositionNaut miles runAvg speedWind from/ knotsBaromVisibWave heightAir tempDewpointWater temp
2018-Apr-21 22:08N 46°33' W 002°36'2 2.9
2018-Apr-21 21:34N 46°32' W 002°34'1 3.7
2018-Apr-21 21:10N 46°32' W 002°32'1 3.7
2018-Apr-21 20:52N 46°32' W 002°31'1 3.6
2018-Apr-21 20:30N 46°32' W 002°29'2 3.7
2018-Apr-21 19:57N 46°32' W 002°26'1 3.0
2018-Apr-21 19:30N 46°32' W 002°24'2 4.1
2018-Apr-21 19:00N 46°34' W 002°22'2 3.9
2018-Apr-21 18:30N 46°35' W 002°20'2 1.8
2018-Apr-21 17:37N 46°35' W 002°18'0 3.3
2018-Apr-21 17:30N 46°35' W 002°17'2 3.3
2018-Apr-21 17:01N 46°34' W 002°15'2 3.3
2018-Apr-21 16:29N 46°33' W 002°13'1 2.8
2018-Apr-21 15:59N 46°33' W 002°11'2 3.2
2018-Apr-21 15:31N 46°32' W 002°09'2 3.2
2018-Apr-21 15:00N 46°31' W 002°07'2 3.2
2018-Apr-21 14:31N 46°31' W 002°05'1 2.4
2018-Apr-21 14:00N 46°30' W 002°04'2 3.1
2018-Apr-21 13:31N 46°31' W 002°05'2 3.3
2018-Apr-21 13:00N 46°31' W 002°08'2 3.3
2018-Apr-21 12:30N 46°32' W 002°10'2 3.3
2018-Apr-21 12:01N 46°33' W 002°12'2 3.3
2018-Apr-21 11:31N 46°34' W 002°14'2 3.3
2018-Apr-21 11:00N 46°35' W 002°16'2 3.2
2018-Apr-21 10:30N 46°36' W 002°18'1 2.2
2018-Apr-21 09:51N 46°37' W 002°19'1 2.6
2018-Apr-21 09:31N 46°36' W 002°19'2 3.4
2018-Apr-21 09:00N 46°35' W 002°17'2 3.4
2018-Apr-21 08:30N 46°34' W 002°15'2 3.4
2018-Apr-21 08:00N 46°33' W 002°13'2 3.3
2018-Apr-21 07:30N 46°32' W 002°10'2 3.3
2018-Apr-21 07:01N 46°32' W 002°08'2 3.2
2018-Apr-21 06:31N 46°31' W 002°06'3 5.1
2018-Apr-21 06:00N 46°30' W 002°03'4 8.3
2018-Apr-21 05:31N 46°30' W 001°57'4 8.5
2018-Apr-21 05:01N 46°29' W 001°51'2 4.8
2018-Apr-21 04:30N 46°30' W 001°48'0 0.4
2018-Apr-21 04:01N 46°30' W 001°47'0 0.0
2018-Apr-21 03:31N 46°30' W 001°47'0 0.0
2018-Apr-21 03:01N 46°30' W 001°47'0 0.0
2018-Apr-21 02:30N 46°30' W 001°47'0 0.0
2018-Apr-21 02:01N 46°30' W 001°47'0 0.0
2018-Apr-21 01:31N 46°30' W 001°47'0 0.0
2018-Apr-21 01:01N 46°30' W 001°47'0 0.0
2018-Apr-21 00:31N 46°30' W 001°47'0 0.0
2018-Apr-21 00:01N 46°30' W 001°47'0 0.0
2018-Apr-20 23:31N 46°30' W 001°47'0 0.0
2018-Apr-20 22:59N 46°30' W 001°47'0 0.0
2018-Apr-20 22:31N 46°30' W 001°47'0 0.0
2018-Apr-20 22:00N 46°30' W 001°47'0 0.0
2018-Apr-20 21:31N 46°30' W 001°47'0 0.0
2018-Apr-20 21:01N 46°30' W 001°47'0 0.0
2018-Apr-20 20:31N 46°30' W 001°47'0 0.0
2018-Apr-20 20:00N 46°30' W 001°47'0 0.0
2018-Apr-20 19:31N 46°30' W 001°47'0 0.0
2018-Apr-20 19:01N 46°30' W 001°47'0 0.0
2018-Apr-20 18:31N 46°30' W 001°47'0 0.0
2018-Apr-20 18:00N 46°30' W 001°47'0 0.0
2018-Apr-20 17:31N 46°30' W 001°47'0 0.0
2018-Apr-20 17:00N 46°30' W 001°47'0 0.0
2018-Apr-20 16:30N 46°30' W 001°47'0 0.0
2018-Apr-20 16:00N 46°30' W 001°47'0 0.0
2018-Apr-20 15:30N 46°30' W 001°47'0 0.0
2018-Apr-20 15:01N 46°30' W 001°47'0 0.0
2018-Apr-20 14:30N 46°30' W 001°47'0 0.0
2018-Apr-20 14:01N 46°30' W 001°47'0 0.0
2018-Apr-20 13:31N 46°30' W 001°47'0 0.0
2018-Apr-20 13:01N 46°30' W 001°47'0 0.0
2018-Apr-20 12:30N 46°30' W 001°47'0 0.0
2018-Apr-20 12:00N 46°30' W 001°47'0 0.0
2018-Apr-20 11:31N 46°30' W 001°47'0 0.0
2018-Apr-20 11:01N 46°30' W 001°47'0 0.0
2018-Apr-20 10:30N 46°30' W 001°47'0 0.0
2018-Apr-20 10:01N 46°30' W 001°47'0 0.0
2018-Apr-20 09:31N 46°30' W 001°47'0 0.0
2018-Apr-20 09:01N 46°30' W 001°47'0 0.0
2018-Apr-20 08:31N 46°30' W 001°47'0 0.0
2018-Apr-20 08:00N 46°30' W 001°47'0 0.0
2018-Apr-20 07:31N 46°30' W 001°47'0 0.0
2018-Apr-20 07:01N 46°30' W 001°47'0 0.0
2018-Apr-20 06:31N 46°30' W 001°47'0 0.0
2018-Apr-20 06:01N 46°30' W 001°47'0 0.0
2018-Apr-20 05:31N 46°30' W 001°47'0 0.0
2018-Apr-20 05:00N 46°30' W 001°47'0 0.0
2018-Apr-20 04:30N 46°30' W 001°47'0 0.0
2018-Apr-20 04:01N 46°30' W 001°47'0 0.0
2018-Apr-20 03:30N 46°30' W 001°47'0 0.0
2018-Apr-20 03:00N 46°30' W 001°47'0 0.0
2018-Apr-20 02:30N 46°30' W 001°47'0 0.0
2018-Apr-20 02:00N 46°30' W 001°47'0 0.0
2018-Apr-20 01:31N 46°30' W 001°47'0 0.0
2018-Apr-20 01:00N 46°30' W 001°47'0 0.0
2018-Apr-20 00:30N 46°30' W 001°47'0 0.0
2018-Apr-19 23:59N 46°30' W 001°47'0 0.0
2018-Apr-19 23:30N 46°30' W 001°47'0 0.0
2018-Apr-19 23:00N 46°30' W 001°47'0 0.0
2018-Apr-19 22:31N 46°30' W 001°47'0 0.0
2018-Apr-19 22:00N 46°30' W 001°47'0 0.0
2018-Apr-19 21:31N 46°30' W 001°47'0 0.0
2018-Apr-19 21:00N 46°30' W 001°47'0 0.0
2018-Apr-19 20:30N 46°30' W 001°47'0 0.2
2018-Apr-19 20:01N 46°30' W 001°47'1 2.3
2018-Apr-19 19:31N 46°29' W 001°47'3 6.5
2018-Apr-19 19:00N 46°28' W 001°52'4 7.3
2018-Apr-19 18:31N 46°28' W 001°57'3 5.8
2018-Apr-19 18:00N 46°28' W 002°01'1 2.1
2018-Apr-19 17:31N 46°28' W 002°03'2 3.4
2018-Apr-19 17:01N 46°30' W 002°04'2 3.3
2018-Apr-19 16:30N 46°31' W 002°06'2 3.5
2018-Apr-19 16:00N 46°32' W 002°08'2 3.5
2018-Apr-19 15:25N 46°33' W 002°11'7 2.7
2018-Apr-19 12:51N 46°37' W 002°19'3 2.5
2018-Apr-19 11:39N 46°35' W 002°16'1 3.5
2018-Apr-19 11:22N 46°34' W 002°15'1 3.5
2018-Apr-19 10:57N 46°33' W 002°13'2 3.5
2018-Apr-19 10:27N 46°33' W 002°11'1 2.0
2018-Apr-19 09:57N 46°32' W 002°10'1 2.9
2018-Apr-19 09:30N 46°33' W 002°11'2 3.0
2018-Apr-19 09:00N 46°33' W 002°13'2 3.1
2018-Apr-19 08:19N 46°34' W 002°16'2 2.1
2018-Apr-19 07:36N 46°36' W 002°17'0 3.5
2018-Apr-19 07:28N 46°36' W 002°17'1 3.1
2018-Apr-19 07:00N 46°37' W 002°19'2 3.2
2018-Apr-19 06:29N 46°37' W 002°21'1 1.8
2018-Apr-19 05:59N 46°36' W 002°22'2 3.3
2018-Apr-19 05:30N 46°35' W 002°23'1 1.8
2018-Apr-19 05:00N 46°35' W 002°24'2 3.1
2018-Apr-19 04:30N 46°36' W 002°23'2 3.1
2018-Apr-19 04:00N 46°37' W 002°21'4 3.0
2018-Apr-19 02:42N 46°35' W 002°16'1 3.4
2018-Apr-19 02:21N 46°34' W 002°15'1 2.2
2018-Apr-19 01:49N 46°35' W 002°16'1 3.2
2018-Apr-19 01:29N 46°35' W 002°18'3 2.3
2018-Apr-19 00:14N 46°34' W 002°21'2 3.2
2018-Apr-18 23:44N 46°33' W 002°23'1 3.0
2018-Apr-18 23:30N 46°33' W 002°24'5 2.1
2018-Apr-18 21:05N 46°35' W 002°18'1 3.3
2018-Apr-18 20:51N 46°35' W 002°17'2 3.2
2018-Apr-18 20:10N 46°34' W 002°14'1 3.2
2018-Apr-18 19:59N 46°33' W 002°13'2 3.2
2018-Apr-18 19:30N 46°33' W 002°11'2 3.3
2018-Apr-18 19:01N 46°32' W 002°09'2 3.1
2018-Apr-18 18:30N 46°31' W 002°07'2 4.0
2018-Apr-18 18:00N 46°31' W 002°04'4 7.5
2018-Apr-18 17:31N 46°30' W 001°59'4 7.7
2018-Apr-18 17:00N 46°29' W 001°53'4 7.7
2018-Apr-18 16:31N 46°29' W 001°48'1 2.6
2018-Apr-18 16:00N 46°30' W 001°47'0 0.2
2018-Apr-18 15:31N 46°30' W 001°47'0 0.0
2018-Apr-18 15:00N 46°30' W 001°47'0 0.0
2018-Apr-18 14:29N 46°30' W 001°47'0 0.0
2018-Apr-18 14:01N 46°30' W 001°47'0 0.0
2018-Apr-18 13:31N 46°30' W 001°47'0 0.0
2018-Apr-18 13:01N 46°30' W 001°47'0 0.0
2018-Apr-18 12:30N 46°30' W 001°47'0 0.0
2018-Apr-18 12:01N 46°30' W 001°47'0 0.0
2018-Apr-18 11:31N 46°30' W 001°47'0 0.0
2018-Apr-18 11:00N 46°30' W 001°47'0 0.0
2018-Apr-18 10:30N 46°30' W 001°47'0 0.0
2018-Apr-18 10:00N 46°30' W 001°47'0 0.0
2018-Apr-18 09:31N 46°30' W 001°47'0 0.0
2018-Apr-18 09:01N 46°30' W 001°47'0 0.0
2018-Apr-18 08:31N 46°30' W 001°47'0 0.0
2018-Apr-18 08:00N 46°30' W 001°47'0 0.0
2018-Apr-18 07:31N 46°30' W 001°47'0 0.0
2018-Apr-18 07:00N 46°30' W 001°47'0 0.0
2018-Apr-18 06:31N 46°30' W 001°47'0 0.0
2018-Apr-18 06:00N 46°30' W 001°47'0 0.0
2018-Apr-18 05:31N 46°30' W 001°47'0 0.0
2018-Apr-18 05:01N 46°30' W 001°47'0 0.0
2018-Apr-18 04:30N 46°30' W 001°47'0 0.0
2018-Apr-18 04:01N 46°30' W 001°47'0 0.0
2018-Apr-18 03:31N 46°30' W 001°47'0 0.0
2018-Apr-18 02:59N 46°30' W 001°47'0 0.0
2018-Apr-18 02:30N 46°30' W 001°47'0 0.0
2018-Apr-18 01:58N 46°30' W 001°47'0 0.0
2018-Apr-18 01:31N 46°30' W 001°47'0 0.0
2018-Apr-18 01:01N 46°30' W 001°47'0 0.0
2018-Apr-18 00:30N 46°30' W 001°47'0 0.0
2018-Apr-18 00:00N 46°30' W 001°47'0 0.0
2018-Apr-17 23:29N 46°30' W 001°47'0 0.0
2018-Apr-17 23:00N 46°30' W 001°47'0 0.0
2018-Apr-17 22:31N 46°30' W 001°47'0 0.0
2018-Apr-17 22:00N 46°30' W 001°47'0 0.0
2018-Apr-17 21:30N 46°30' W 001°47'0 0.0
2018-Apr-17 21:01N 46°30' W 001°47'0 0.0
2018-Apr-17 20:31N 46°30' W 001°47'0 0.0
2018-Apr-17 19:58N 46°30' W 001°47'0 0.0
2018-Apr-17 19:29N 46°30' W 001°47'0 0.0
2018-Apr-17 19:00N 46°30' W 001°47'0 0.0
2018-Apr-17 18:31N 46°30' W 001°47'0 0.0
2018-Apr-17 18:00N 46°30' W 001°47'0 0.0
2018-Apr-17 17:31N 46°30' W 001°47'0 0.0
2018-Apr-17 17:01N 46°30' W 001°47'0 0.0
2018-Apr-17 16:31N 46°30' W 001°47'0 0.0
2018-Apr-17 16:01N 46°30' W 001°47'0 0.0
2018-Apr-17 15:31N 46°30' W 001°47'0 0.0
2018-Apr-17 15:00N 46°30' W 001°47'0 0.0
2018-Apr-17 14:29N 46°30' W 001°47'0 0.0
2018-Apr-17 14:01N 46°30' W 001°47'0 0.0
2018-Apr-17 13:29N 46°30' W 001°47'0 0.0
2018-Apr-17 13:01N 46°30' W 001°47'0 0.0
2018-Apr-17 12:29N 46°30' W 001°47'0 0.0
2018-Apr-17 12:00N 46°30' W 001°47'0 0.0
2018-Apr-17 11:30N 46°30' W 001°47'0 0.0
2018-Apr-17 11:00N 46°30' W 001°47'0 0.0
2018-Apr-17 10:30N 46°30' W 001°47'0 0.0
2018-Apr-17 10:01N 46°30' W 001°47'0 0.0
2018-Apr-17 09:31N 46°30' W 001°47'0 0.0
2018-Apr-17 09:00N 46°30' W 001°47'0 0.0
2018-Apr-17 08:27N 46°30' W 001°47'0 0.0
2018-Apr-17 08:00N 46°30' W 001°47'0 0.0
2018-Apr-17 07:31N 46°30' W 001°47'0 0.0
2018-Apr-17 07:01N 46°30' W 001°47'0 0.0
2018-Apr-17 06:31N 46°30' W 001°47'0 0.0
2018-Apr-17 06:00N 46°30' W 001°47'0 0.0
2018-Apr-17 05:31N 46°30' W 001°47'0 0.0
2018-Apr-17 05:00N 46°30' W 001°47'0 0.0
2018-Apr-17 04:31N 46°30' W 001°47'0 0.0
2018-Apr-17 04:00N 46°30' W 001°47'0 0.0
2018-Apr-17 03:31N 46°30' W 001°47'0 0.0
2018-Apr-17 03:00N 46°30' W 001°47'0 0.0
2018-Apr-17 02:30N 46°30' W 001°47'0 0.0
2018-Apr-17 01:58N 46°30' W 001°47'0 0.0
2018-Apr-17 01:31N 46°30' W 001°47'0 0.0
2018-Apr-17 00:57N 46°30' W 001°47'0 0.0
2018-Apr-17 00:30N 46°30' W 001°47'0 0.0
2018-Apr-17 00:01N 46°30' W 001°47'0 0.0
2018-Apr-16 23:30N 46°30' W 001°47'0 0.0
2018-Apr-16 23:00N 46°30' W 001°47'0 0.0
2018-Apr-16 22:30N 46°30' W 001°47'0 0.0
2018-Apr-16 22:01N 46°30' W 001°47'0 0.0
2018-Apr-16 21:30N 46°30' W 001°47'0 0.0
2018-Apr-16 21:00N 46°30' W 001°47'0 0.0
2018-Apr-16 20:31N 46°30' W 001°47'0 0.0
2018-Apr-16 20:00N 46°30' W 001°47'0 0.0
2018-Apr-16 19:31N 46°30' W 001°47'0 0.0
2018-Apr-16 19:00N 46°30' W 001°47'0 0.0
2018-Apr-16 18:30N 46°30' W 001°47'0 0.0
2018-Apr-16 18:01N 46°30' W 001°47'0 0.0
2018-Apr-16 17:31N 46°30' W 001°47'0 0.0
2018-Apr-16 17:00N 46°30' W 001°47'0 0.0
2018-Apr-16 16:30N 46°30' W 001°47'0 0.0
2018-Apr-16 16:01N 46°30' W 001°47'0 0.1
2018-Apr-16 15:30N 46°30' W 001°47'1 1.6
2018-Apr-16 15:01N 46°29' W 001°47'4 7.5
2018-Apr-16 14:31N 46°29' W 001°53'4 8.7
2018-Apr-16 14:01N 46°30' W 001°59'4 7.6
2018-Apr-16 13:31N 46°31' W 002°04'1 2.5
2018-Apr-16 13:01N 46°31' W 002°06'2 3.3
2018-Apr-16 12:28N 46°32' W 002°09'2 3.4
2018-Apr-16 11:50N 46°33' W 002°11'2 3.3
2018-Apr-16 11:21N 46°34' W 002°13'2 3.3
2018-Apr-16 10:43N 46°34' W 002°16'6 0.6
2018-Apr-15 23:14N 46°28' W 002°19'1 2.9
2018-Apr-15 22:49N 46°29' W 002°17'1 3.0
2018-Apr-15 22:30N 46°29' W 002°16'6 0.4
2018-Apr-15 05:32N 46°34' W 002°11'0 8.9
2018-Apr-15 05:31N 46°34' W 002°11'4 8.8
2018-Apr-15 05:00N 46°32' W 002°05'4 8.3
2018-Apr-15 04:30N 46°31' W 001°59'4 8.5
2018-Apr-15 04:00N 46°29' W 001°53'4 8.4
2018-Apr-15 03:30N 46°28' W 001°48'2 3.2
2018-Apr-15 03:01N 46°30' W 001°47'0 0.0
2018-Apr-15 02:31N 46°30' W 001°47'0 0.0
2018-Apr-15 02:00N 46°30' W 001°47'0 0.4
2018-Apr-15 01:30N 46°30' W 001°47'1 2.7
2018-Apr-15 01:00N 46°29' W 001°47'4 8.0
2018-Apr-15 00:31N 46°29' W 001°53'4 8.2
2018-Apr-15 00:01N 46°31' W 001°58'4 8.4
2018-Apr-14 23:31N 46°32' W 002°04'4 8.4
2018-Apr-14 22:59N 46°34' W 002°10'9 3.7
2018-Apr-14 20:39N 46°35' W 002°23'0 3.4
2018-Apr-14 20:30N 46°35' W 002°23'12 0.6
2018-Apr-14 01:07N 46°24' W 002°30'0 3.6
2018-Apr-14 00:59N 46°24' W 002°30'6 3.5
2018-Apr-13 23:13N 46°30' W 002°34'1 3.4
2018-Apr-13 23:00N 46°30' W 002°34'1 2.8
2018-Apr-13 22:31N 46°32' W 002°34'1 2.3
2018-Apr-13 22:00N 46°32' W 002°32'1 2.8
2018-Apr-13 21:29N 46°32' W 002°30'1 3.1
2018-Apr-13 21:01N 46°32' W 002°28'2 3.2
2018-Apr-13 20:30N 46°32' W 002°25'2 3.2
2018-Apr-13 20:00N 46°32' W 002°23'2 3.4
2018-Apr-13 19:31N 46°32' W 002°21'2 3.5
2018-Apr-13 19:01N 46°33' W 002°19'2 3.6
2018-Apr-13 18:29N 46°35' W 002°18'7 0.9
2018-Apr-13 11:24N 46°28' W 002°17'4 1.2
2018-Apr-13 07:48N 46°31' W 002°21'4 2.4
2018-Apr-13 06:08N 46°29' W 002°16'0 2.3
2018-Apr-13 06:00N 46°30' W 002°16'2 3.3
2018-Apr-13 05:18N 46°32' W 002°18'3 1.7
2018-Apr-13 03:23N 46°28' W 002°19'1 3.3
2018-Apr-13 03:00N 46°29' W 002°17'1 0.5
2018-Apr-13 00:58N 46°28' W 002°18'1 3.1
2018-Apr-13 00:30N 46°29' W 002°20'3 2.1
2018-Apr-12 23:07N 46°32' W 002°19'1 3.2
2018-Apr-12 22:39N 46°31' W 002°17'1 3.5
2018-Apr-12 22:16N 46°30' W 002°16'0 1.4
2018-Apr-12 21:56N 46°29' W 002°16'4 1.8
2018-Apr-12 19:51N 46°27' W 002°19'2 3.4
2018-Apr-12 19:17N 46°26' W 002°17'1 3.5
2018-Apr-12 19:00N 46°26' W 002°15'7 6.6
2018-Apr-12 17:54N 46°27' W 002°05'3 8.6
2018-Apr-12 17:31N 46°28' W 002°00'4 8.6
2018-Apr-12 17:00N 46°28' W 001°54'4 8.3
2018-Apr-12 16:30N 46°28' W 001°48'2 3.6
2018-Apr-12 16:00N 46°30' W 001°47'0 0.0
2018-Apr-12 15:31N 46°30' W 001°47'1 2.7
2018-Apr-12 15:01N 46°29' W 001°47'4 8.7
2018-Apr-12 14:31N 46°28' W 001°53'4 8.6
2018-Apr-12 14:00N 46°26' W 001°59'4 8.7
2018-Apr-12 13:31N 46°25' W 002°06'5 8.9
2018-Apr-12 12:55N 46°24' W 002°13'1 2.7
2018-Apr-12 12:25N 46°23' W 002°15'1 3.1
2018-Apr-12 12:00N 46°22' W 002°15'3 3.9
2018-Apr-12 11:12N 46°21' W 002°19'1 3.8
2018-Apr-12 10:59N 46°21' W 002°21'11 2.6
2018-Apr-12 06:40N 46°32' W 002°23'2 8.1
2018-Apr-12 06:27N 46°34' W 002°22'3 6.4
2018-Apr-12 05:59N 46°36' W 002°19'2 0.9
2018-Apr-12 03:15N 46°34' W 002°20'0 0.8
2018-Apr-12 02:59N 46°34' W 002°19'1 2.3
2018-Apr-12 02:21N 46°35' W 002°18'5 2.1
2018-Apr-12 00:10N 46°32' W 002°23'1 3.2
2018-Apr-11 23:59N 46°32' W 002°22'1 3.0
2018-Apr-11 23:30N 46°32' W 002°20'2 3.2
2018-Apr-11 23:00N 46°34' W 002°19'2 3.2
2018-Apr-11 22:29N 46°35' W 002°18'  
Track history (hours):
 
Tides and Currents Weather Stations Pressure Air Temp Water Temp Dewpoint Dewpoint Depression Visibility Wind Speed Wind Dir Waves Ship Positions

F/v_l'omerta

Last reported at 2018-Apr-21 22:08 UTC. Time now 2018-Apr-21 23:09 UTC.
Position N 46°33' W 002°36'.

Length 18 m.

Type: Fishing. MMSI: 227903000.

Date/timePositionNaut miles runAvg speedWind from/ knotsBaromVisibWave heightAir tempDewpointWater temp
2018-Apr-21 22:08N 46°33' W 002°36'2 2.9
2018-Apr-21 21:34N 46°32' W 002°34'1 3.7
2018-Apr-21 21:10N 46°32' W 002°32'1 3.7
2018-Apr-21 20:52N 46°32' W 002°31'1 3.6
2018-Apr-21 20:30N 46°32' W 002°29'2 3.7
2018-Apr-21 19:57N 46°32' W 002°26'1 3.0
2018-Apr-21 19:30N 46°32' W 002°24'2 4.1
2018-Apr-21 19:00N 46°34' W 002°22'2 3.9
2018-Apr-21 18:30N 46°35' W 002°20'2 1.8
2018-Apr-21 17:37N 46°35' W 002°18'0 3.3
2018-Apr-21 17:30N 46°35' W 002°17'2 3.3
2018-Apr-21 17:01N 46°34' W 002°15'2 3.3
2018-Apr-21 16:29N 46°33' W 002°13'1 2.8
2018-Apr-21 15:59N 46°33' W 002°11'2 3.2
2018-Apr-21 15:31N 46°32' W 002°09'2 3.2
2018-Apr-21 15:00N 46°31' W 002°07'2 3.2
2018-Apr-21 14:31N 46°31' W 002°05'1 2.4
2018-Apr-21 14:00N 46°30' W 002°04'2 3.1
2018-Apr-21 13:31N 46°31' W 002°05'2 3.3
2018-Apr-21 13:00N 46°31' W 002°08'2 3.3
2018-Apr-21 12:30N 46°32' W 002°10'2 3.3
2018-Apr-21 12:01N 46°33' W 002°12'2 3.3
2018-Apr-21 11:31N 46°34' W 002°14'2 3.3
2018-Apr-21 11:00N 46°35' W 002°16'2 3.2
2018-Apr-21 10:30N 46°36' W 002°18'1 2.2
2018-Apr-21 09:51N 46°37' W 002°19'1 2.6
2018-Apr-21 09:31N 46°36' W 002°19'2 3.4
2018-Apr-21 09:00N 46°35' W 002°17'2 3.4
2018-Apr-21 08:30N 46°34' W 002°15'2 3.4
2018-Apr-21 08:00N 46°33' W 002°13'2 3.3
2018-Apr-21 07:30N 46°32' W 002°10'2 3.3
2018-Apr-21 07:01N 46°32' W 002°08'2 3.2
2018-Apr-21 06:31N 46°31' W 002°06'3 5.1
2018-Apr-21 06:00N 46°30' W 002°03'4 8.3
2018-Apr-21 05:31N 46°30' W 001°57'4 8.5
2018-Apr-21 05:01N 46°29' W 001°51'2 4.8
2018-Apr-21 04:30N 46°30' W 001°48'0 0.4
2018-Apr-21 04:01N 46°30' W 001°47'0 0.0
2018-Apr-21 03:31N 46°30' W 001°47'0 0.0
2018-Apr-21 03:01N 46°30' W 001°47'0 0.0
2018-Apr-21 02:30N 46°30' W 001°47'0 0.0
2018-Apr-21 02:01N 46°30' W 001°47'0 0.0
2018-Apr-21 01:31N 46°30' W 001°47'0 0.0
2018-Apr-21 01:01N 46°30' W 001°47'0 0.0
2018-Apr-21 00:31N 46°30' W 001°47'0 0.0
2018-Apr-21 00:01N 46°30' W 001°47'0 0.0
2018-Apr-20 23:31N 46°30' W 001°47'0 0.0
2018-Apr-20 22:59N 46°30' W 001°47'0 0.0
2018-Apr-20 22:31N 46°30' W 001°47'0 0.0
2018-Apr-20 22:00N 46°30' W 001°47'0 0.0
2018-Apr-20 21:31N 46°30' W 001°47'0 0.0
2018-Apr-20 21:01N 46°30' W 001°47'0 0.0
2018-Apr-20 20:31N 46°30' W 001°47'0 0.0
2018-Apr-20 20:00N 46°30' W 001°47'0 0.0
2018-Apr-20 19:31N 46°30' W 001°47'0 0.0
2018-Apr-20 19:01N 46°30' W 001°47'0 0.0
2018-Apr-20 18:31N 46°30' W 001°47'0 0.0
2018-Apr-20 18:00N 46°30' W 001°47'0 0.0
2018-Apr-20 17:31N 46°30' W 001°47'0 0.0
2018-Apr-20 17:00N 46°30' W 001°47'0 0.0
2018-Apr-20 16:30N 46°30' W 001°47'0 0.0
2018-Apr-20 16:00N 46°30' W 001°47'0 0.0
2018-Apr-20 15:30N 46°30' W 001°47'0 0.0
2018-Apr-20 15:01N 46°30' W 001°47'0 0.0
2018-Apr-20 14:30N 46°30' W 001°47'0 0.0
2018-Apr-20 14:01N 46°30' W 001°47'0 0.0
2018-Apr-20 13:31N 46°30' W 001°47'0 0.0
2018-Apr-20 13:01N 46°30' W 001°47'0 0.0
2018-Apr-20 12:30N 46°30' W 001°47'0 0.0
2018-Apr-20 12:00N 46°30' W 001°47'0 0.0
2018-Apr-20 11:31N 46°30' W 001°47'0 0.0
2018-Apr-20 11:01N 46°30' W 001°47'0 0.0
2018-Apr-20 10:30N 46°30' W 001°47'0 0.0
2018-Apr-20 10:01N 46°30' W 001°47'0 0.0
2018-Apr-20 09:31N 46°30' W 001°47'0 0.0
2018-Apr-20 09:01N 46°30' W 001°47'0 0.0
2018-Apr-20 08:31N 46°30' W 001°47'0 0.0
2018-Apr-20 08:00N 46°30' W 001°47'0 0.0
2018-Apr-20 07:31N 46°30' W 001°47'0 0.0
2018-Apr-20 07:01N 46°30' W 001°47'0 0.0
2018-Apr-20 06:31N 46°30' W 001°47'0 0.0
2018-Apr-20 06:01N 46°30' W 001°47'0 0.0
2018-Apr-20 05:31N 46°30' W 001°47'0 0.0
2018-Apr-20 05:00N 46°30' W 001°47'0 0.0
2018-Apr-20 04:30N 46°30' W 001°47'0 0.0
2018-Apr-20 04:01N 46°30' W 001°47'0 0.0
2018-Apr-20 03:30N 46°30' W 001°47'0 0.0
2018-Apr-20 03:00N 46°30' W 001°47'0 0.0
2018-Apr-20 02:30N 46°30' W 001°47'0 0.0
2018-Apr-20 02:00N 46°30' W 001°47'0 0.0
2018-Apr-20 01:31N 46°30' W 001°47'0 0.0
2018-Apr-20 01:00N 46°30' W 001°47'0 0.0
2018-Apr-20 00:30N 46°30' W 001°47'0 0.0
2018-Apr-19 23:59N 46°30' W 001°47'0 0.0
2018-Apr-19 23:30N 46°30' W 001°47'0 0.0
2018-Apr-19 23:00N 46°30' W 001°47'0 0.0
2018-Apr-19 22:31N 46°30' W 001°47'0 0.0
2018-Apr-19 22:00N 46°30' W 001°47'0 0.0
2018-Apr-19 21:31N 46°30' W 001°47'0 0.0
2018-Apr-19 21:00N 46°30' W 001°47'0 0.0
2018-Apr-19 20:30N 46°30' W 001°47'0 0.2
2018-Apr-19 20:01N 46°30' W 001°47'1 2.3
2018-Apr-19 19:31N 46°29' W 001°47'3 6.5
2018-Apr-19 19:00N 46°28' W 001°52'4 7.3
2018-Apr-19 18:31N 46°28' W 001°57'3 5.8
2018-Apr-19 18:00N 46°28' W 002°01'1 2.1
2018-Apr-19 17:31N 46°28' W 002°03'2 3.4
2018-Apr-19 17:01N 46°30' W 002°04'2 3.3
2018-Apr-19 16:30N 46°31' W 002°06'2 3.5
2018-Apr-19 16:00N 46°32' W 002°08'2 3.5
2018-Apr-19 15:25N 46°33' W 002°11'7 2.7
2018-Apr-19 12:51N 46°37' W 002°19'3 2.5
2018-Apr-19 11:39N 46°35' W 002°16'1 3.5
2018-Apr-19 11:22N 46°34' W 002°15'1 3.5
2018-Apr-19 10:57N 46°33' W 002°13'2 3.5
2018-Apr-19 10:27N 46°33' W 002°11'1 2.0
2018-Apr-19 09:57N 46°32' W 002°10'1 2.9
2018-Apr-19 09:30N 46°33' W 002°11'2 3.0
2018-Apr-19 09:00N 46°33' W 002°13'2 3.1
2018-Apr-19 08:19N 46°34' W 002°16'2 2.1
2018-Apr-19 07:36N 46°36' W 002°17'0 3.5
2018-Apr-19 07:28N 46°36' W 002°17'1 3.1
2018-Apr-19 07:00N 46°37' W 002°19'2 3.2
2018-Apr-19 06:29N 46°37' W 002°21'1 1.8
2018-Apr-19 05:59N 46°36' W 002°22'2 3.3
2018-Apr-19 05:30N 46°35' W 002°23'1 1.8
2018-Apr-19 05:00N 46°35' W 002°24'2 3.1
2018-Apr-19 04:30N 46°36' W 002°23'2 3.1
2018-Apr-19 04:00N 46°37' W 002°21'4 3.0
2018-Apr-19 02:42N 46°35' W 002°16'1 3.4
2018-Apr-19 02:21N 46°34' W 002°15'1 2.2
2018-Apr-19 01:49N 46°35' W 002°16'1 3.2
2018-Apr-19 01:29N 46°35' W 002°18'3 2.3
2018-Apr-19 00:14N 46°34' W 002°21'2 3.2
2018-Apr-18 23:44N 46°33' W 002°23'1 3.0
2018-Apr-18 23:30N 46°33' W 002°24'5 2.1
2018-Apr-18 21:05N 46°35' W 002°18'1 3.3
2018-Apr-18 20:51N 46°35' W 002°17'2 3.2
2018-Apr-18 20:10N 46°34' W 002°14'1 3.2
2018-Apr-18 19:59N 46°33' W 002°13'2 3.2
2018-Apr-18 19:30N 46°33' W 002°11'2 3.3
2018-Apr-18 19:01N 46°32' W 002°09'2 3.1
2018-Apr-18 18:30N 46°31' W 002°07'2 4.0
2018-Apr-18 18:00N 46°31' W 002°04'4 7.5
2018-Apr-18 17:31N 46°30' W 001°59'4 7.7
2018-Apr-18 17:00N 46°29' W 001°53'4 7.7
2018-Apr-18 16:31N 46°29' W 001°48'1 2.6
2018-Apr-18 16:00N 46°30' W 001°47'0 0.2
2018-Apr-18 15:31N 46°30' W 001°47'0 0.0
2018-Apr-18 15:00N 46°30' W 001°47'0 0.0
2018-Apr-18 14:29N 46°30' W 001°47'0 0.0
2018-Apr-18 14:01N 46°30' W 001°47'0 0.0
2018-Apr-18 13:31N 46°30' W 001°47'0 0.0
2018-Apr-18 13:01N 46°30' W 001°47'0 0.0
2018-Apr-18 12:30N 46°30' W 001°47'0 0.0
2018-Apr-18 12:01N 46°30' W 001°47'0 0.0
2018-Apr-18 11:31N 46°30' W 001°47'0 0.0
2018-Apr-18 11:00N 46°30' W 001°47'0 0.0
2018-Apr-18 10:30N 46°30' W 001°47'0 0.0
2018-Apr-18 10:00N 46°30' W 001°47'0 0.0
2018-Apr-18 09:31N 46°30' W 001°47'0 0.0
2018-Apr-18 09:01N 46°30' W 001°47'0 0.0
2018-Apr-18 08:31N 46°30' W 001°47'0 0.0
2018-Apr-18 08:00N 46°30' W 001°47'0 0.0
2018-Apr-18 07:31N 46°30' W 001°47'0 0.0
2018-Apr-18 07:00N 46°30' W 001°47'0 0.0
2018-Apr-18 06:31N 46°30' W 001°47'0 0.0
2018-Apr-18 06:00N 46°30' W 001°47'0 0.0
2018-Apr-18 05:31N 46°30' W 001°47'0 0.0
2018-Apr-18 05:01N 46°30' W 001°47'0 0.0
2018-Apr-18 04:30N 46°30' W 001°47'0 0.0
2018-Apr-18 04:01N 46°30' W 001°47'0 0.0
2018-Apr-18 03:31N 46°30' W 001°47'0 0.0
2018-Apr-18 02:59N 46°30' W 001°47'0 0.0
2018-Apr-18 02:30N 46°30' W 001°47'0 0.0
2018-Apr-18 01:58N 46°30' W 001°47'0 0.0
2018-Apr-18 01:31N 46°30' W 001°47'0 0.0
2018-Apr-18 01:01N 46°30' W 001°47'0 0.0
2018-Apr-18 00:30N 46°30' W 001°47'0 0.0
2018-Apr-18 00:00N 46°30' W 001°47'0 0.0
2018-Apr-17 23:29N 46°30' W 001°47'0 0.0
2018-Apr-17 23:00N 46°30' W 001°47'0 0.0
2018-Apr-17 22:31N 46°30' W 001°47'0 0.0
2018-Apr-17 22:00N 46°30' W 001°47'0 0.0
2018-Apr-17 21:30N 46°30' W 001°47'0 0.0
2018-Apr-17 21:01N 46°30' W 001°47'0 0.0
2018-Apr-17 20:31N 46°30' W 001°47'0 0.0
2018-Apr-17 19:58N 46°30' W 001°47'0 0.0
2018-Apr-17 19:29N 46°30' W 001°47'0 0.0
2018-Apr-17 19:00N 46°30' W 001°47'0 0.0
2018-Apr-17 18:31N 46°30' W 001°47'0 0.0
2018-Apr-17 18:00N 46°30' W 001°47'0 0.0
2018-Apr-17 17:31N 46°30' W 001°47'0 0.0
2018-Apr-17 17:01N 46°30' W 001°47'0 0.0
2018-Apr-17 16:31N 46°30' W 001°47'0 0.0
2018-Apr-17 16:01N 46°30' W 001°47'0 0.0
2018-Apr-17 15:31N 46°30' W 001°47'0 0.0
2018-Apr-17 15:00N 46°30' W 001°47'0 0.0
2018-Apr-17 14:29N 46°30' W 001°47'0 0.0
2018-Apr-17 14:01N 46°30' W 001°47'0 0.0
2018-Apr-17 13:29N 46°30' W 001°47'0 0.0
2018-Apr-17 13:01N 46°30' W 001°47'0 0.0
2018-Apr-17 12:29N 46°30' W 001°47'0 0.0
2018-Apr-17 12:00N 46°30' W 001°47'0 0.0
2018-Apr-17 11:30N 46°30' W 001°47'0 0.0
2018-Apr-17 11:00N 46°30' W 001°47'0 0.0
2018-Apr-17 10:30N 46°30' W 001°47'0 0.0
2018-Apr-17 10:01N 46°30' W 001°47'0 0.0
2018-Apr-17 09:31N 46°30' W 001°47'0 0.0
2018-Apr-17 09:00N 46°30' W 001°47'0 0.0
2018-Apr-17 08:27N 46°30' W 001°47'0 0.0
2018-Apr-17 08:00N 46°30' W 001°47'0 0.0
2018-Apr-17 07:31N 46°30' W 001°47'0 0.0
2018-Apr-17 07:01N 46°30' W 001°47'0 0.0
2018-Apr-17 06:31N 46°30' W 001°47'0 0.0
2018-Apr-17 06:00N 46°30' W 001°47'0 0.0
2018-Apr-17 05:31N 46°30' W 001°47'0 0.0
2018-Apr-17 05:00N 46°30' W 001°47'0 0.0
2018-Apr-17 04:31N 46°30' W 001°47'0 0.0
2018-Apr-17 04:00N 46°30' W 001°47'0 0.0
2018-Apr-17 03:31N 46°30' W 001°47'0 0.0
2018-Apr-17 03:00N 46°30' W 001°47'0 0.0
2018-Apr-17 02:30N 46°30' W 001°47'0 0.0
2018-Apr-17 01:58N 46°30' W 001°47'0 0.0
2018-Apr-17 01:31N 46°30' W 001°47'0 0.0
2018-Apr-17 00:57N 46°30' W 001°47'0 0.0
2018-Apr-17 00:30N 46°30' W 001°47'0 0.0
2018-Apr-17 00:01N 46°30' W 001°47'0 0.0
2018-Apr-16 23:30N 46°30' W 001°47'0 0.0
2018-Apr-16 23:00N 46°30' W 001°47'0 0.0
2018-Apr-16 22:30N 46°30' W 001°47'0 0.0
2018-Apr-16 22:01N 46°30' W 001°47'0 0.0
2018-Apr-16 21:30N 46°30' W 001°47'0 0.0
2018-Apr-16 21:00N 46°30' W 001°47'0 0.0
2018-Apr-16 20:31N 46°30' W 001°47'0 0.0
2018-Apr-16 20:00N 46°30' W 001°47'0 0.0
2018-Apr-16 19:31N 46°30' W 001°47'0 0.0
2018-Apr-16 19:00N 46°30' W 001°47'0 0.0
2018-Apr-16 18:30N 46°30' W 001°47'0 0.0
2018-Apr-16 18:01N 46°30' W 001°47'0 0.0
2018-Apr-16 17:31N 46°30' W 001°47'0 0.0
2018-Apr-16 17:00N 46°30' W 001°47'0 0.0
2018-Apr-16 16:30N 46°30' W 001°47'0 0.0
2018-Apr-16 16:01N 46°30' W 001°47'0 0.1
2018-Apr-16 15:30N 46°30' W 001°47'1 1.6
2018-Apr-16 15:01N 46°29' W 001°47'4 7.5
2018-Apr-16 14:31N 46°29' W 001°53'4 8.7
2018-Apr-16 14:01N 46°30' W 001°59'4 7.6
2018-Apr-16 13:31N 46°31' W 002°04'1 2.5
2018-Apr-16 13:01N 46°31' W 002°06'2 3.3
2018-Apr-16 12:28N 46°32' W 002°09'2 3.4
2018-Apr-16 11:50N 46°33' W 002°11'2 3.3
2018-Apr-16 11:21N 46°34' W 002°13'2 3.3
2018-Apr-16 10:43N 46°34' W 002°16'6 0.6
2018-Apr-15 23:14N 46°28' W 002°19'1 2.9
2018-Apr-15 22:49N 46°29' W 002°17'1 3.0
2018-Apr-15 22:30N 46°29' W 002°16'6 0.4
2018-Apr-15 05:32N 46°34' W 002°11'0 8.9
2018-Apr-15 05:31N 46°34' W 002°11'4 8.8
2018-Apr-15 05:00N 46°32' W 002°05'4 8.3
2018-Apr-15 04:30N 46°31' W 001°59'4 8.5
2018-Apr-15 04:00N 46°29' W 001°53'4 8.4
2018-Apr-15 03:30N 46°28' W 001°48'2 3.2
2018-Apr-15 03:01N 46°30' W 001°47'0 0.0
2018-Apr-15 02:31N 46°30' W 001°47'0 0.0
2018-Apr-15 02:00N 46°30' W 001°47'0 0.4
2018-Apr-15 01:30N 46°30' W 001°47'1 2.7
2018-Apr-15 01:00N 46°29' W 001°47'4 8.0
2018-Apr-15 00:31N 46°29' W 001°53'4 8.2
2018-Apr-15 00:01N 46°31' W 001°58'4 8.4
2018-Apr-14 23:31N 46°32' W 002°04'4 8.4
2018-Apr-14 22:59N 46°34' W 002°10'9 3.7
2018-Apr-14 20:39N 46°35' W 002°23'0 3.4
2018-Apr-14 20:30N 46°35' W 002°23'12 0.6
2018-Apr-14 01:07N 46°24' W 002°30'0 3.6
2018-Apr-14 00:59N 46°24' W 002°30'6 3.5
2018-Apr-13 23:13N 46°30' W 002°34'1 3.4
2018-Apr-13 23:00N 46°30' W 002°34'1 2.8
2018-Apr-13 22:31N 46°32' W 002°34'1 2.3
2018-Apr-13 22:00N 46°32' W 002°32'1 2.8
2018-Apr-13 21:29N 46°32' W 002°30'1 3.1
2018-Apr-13 21:01N 46°32' W 002°28'2 3.2
2018-Apr-13 20:30N 46°32' W 002°25'2 3.2
2018-Apr-13 20:00N 46°32' W 002°23'2 3.4
2018-Apr-13 19:31N 46°32' W 002°21'2 3.5
2018-Apr-13 19:01N 46°33' W 002°19'2 3.6
2018-Apr-13 18:29N 46°35' W 002°18'7 0.9
2018-Apr-13 11:24N 46°28' W 002°17'4 1.2
2018-Apr-13 07:48N 46°31' W 002°21'4 2.4
2018-Apr-13 06:08N 46°29' W 002°16'0 2.3
2018-Apr-13 06:00N 46°30' W 002°16'2 3.3
2018-Apr-13 05:18N 46°32' W 002°18'3 1.7
2018-Apr-13 03:23N 46°28' W 002°19'1 3.3
2018-Apr-13 03:00N 46°29' W 002°17'1 0.5
2018-Apr-13 00:58N 46°28' W 002°18'1 3.1
2018-Apr-13 00:30N 46°29' W 002°20'3 2.1
2018-Apr-12 23:07N 46°32' W 002°19'1 3.2
2018-Apr-12 22:39N 46°31' W 002°17'1 3.5
2018-Apr-12 22:16N 46°30' W 002°16'0 1.4
2018-Apr-12 21:56N 46°29' W 002°16'4 1.8
2018-Apr-12 19:51N 46°27' W 002°19'2 3.4
2018-Apr-12 19:17N 46°26' W 002°17'1 3.5
2018-Apr-12 19:00N 46°26' W 002°15'7 6.6
2018-Apr-12 17:54N 46°27' W 002°05'3 8.6
2018-Apr-12 17:31N 46°28' W 002°00'4 8.6
2018-Apr-12 17:00N 46°28' W 001°54'4 8.3
2018-Apr-12 16:30N 46°28' W 001°48'2 3.6
2018-Apr-12 16:00N 46°30' W 001°47'0 0.0
2018-Apr-12 15:31N 46°30' W 001°47'1 2.7
2018-Apr-12 15:01N 46°29' W 001°47'4 8.7
2018-Apr-12 14:31N 46°28' W 001°53'4 8.6
2018-Apr-12 14:00N 46°26' W 001°59'4 8.7
2018-Apr-12 13:31N 46°25' W 002°06'5 8.9
2018-Apr-12 12:55N 46°24' W 002°13'1 2.7
2018-Apr-12 12:25N 46°23' W 002°15'1 3.1
2018-Apr-12 12:00N 46°22' W 002°15'3 3.9
2018-Apr-12 11:12N 46°21' W 002°19'1 3.8
2018-Apr-12 10:59N 46°21' W 002°21'11 2.6
2018-Apr-12 06:40N 46°32' W 002°23'2 8.1
2018-Apr-12 06:27N 46°34' W 002°22'3 6.4
2018-Apr-12 05:59N 46°36' W 002°19'2 0.9
2018-Apr-12 03:15N 46°34' W 002°20'0 0.8
2018-Apr-12 02:59N 46°34' W 002°19'1 2.3
2018-Apr-12 02:21N 46°35' W 002°18'5 2.1
2018-Apr-12 00:10N 46°32' W 002°23'1 3.2
2018-Apr-11 23:59N 46°32' W 002°22'1 3.0
2018-Apr-11 23:30N 46°32' W 002°20'2 3.2
2018-Apr-11 23:00N 46°34' W 002°19'2 3.2
2018-Apr-11 22:29N 46°35' W 002°18'  

Dump ship's entire track history